Terminal Aerodrome Forecast
Issued by NWS

Current Version | Previous Version | Text Only | Print | Product List | Glossary On
Versions: 1 2 3 4 5 6 7 8 9 10 11 12 13 14
163
FTUS46 KMFR 140556 CCA
TAFLMT
TAF COR
KLMT 140556Z 1406/1506 VRB04KT P6SM VCSH SCT030 BKN040 OVC060
     FM141200 VRB03KT P6SM -RA SCT015 BKN025 OVC035
     FM141500 17003KT 6SM -RA BR SCT006 BKN015 OVC025
     FM141800 VRB03KT P6SM -RA BKN010 OVC025=

USA.gov is the U.S. government's official web portal to all federal, state and local government web resources and services.